createdAt,value
2018-12-20T00:04:10.713Z,97.50
2018-12-20T00:09:15.801Z,97.30
2018-12-20T00:14:20.863Z,96.50
2018-12-20T00:19:25.855Z,97.80
2018-12-20T00:24:30.768Z,97.40
2018-12-20T00:29:35.487Z,97.60
2018-12-20T00:34:40.367Z,97.50
2018-12-20T00:39:45.309Z,96.50
2018-12-20T00:44:50.297Z,96.60
2018-12-20T00:49:55.140Z,96.00
2018-12-20T00:54:59.958Z,96.40
2018-12-20T01:00:07.501Z,95.30
2018-12-20T01:05:12.588Z,94.40
2018-12-20T01:10:17.791Z,95.50
2018-12-20T01:15:22.755Z,95.20
2018-12-20T01:20:27.927Z,95.20
2018-12-20T01:25:32.906Z,96.10
2018-12-20T01:30:37.870Z,96.00
2018-12-20T01:35:43.029Z,95.20
2018-12-20T01:40:48.129Z,96.40
2018-12-20T01:45:53.175Z,95.70
2018-12-20T01:50:58.337Z,95.50
2018-12-20T01:56:03.431Z,95.50
2018-12-20T02:01:08.364Z,95.50
2018-12-20T02:06:13.331Z,95.10
2018-12-20T02:11:18.454Z,95.40
2018-12-20T02:16:23.355Z,96.50
2018-12-20T02:21:28.329Z,97.40
2018-12-20T02:26:33.245Z,96.40
2018-12-20T02:31:38.073Z,96.40
2018-12-20T02:36:43.063Z,97.00
2018-12-20T02:41:48.084Z,97.00
2018-12-20T02:46:53.098Z,97.30
2018-12-20T02:51:58.014Z,97.10
2018-12-20T02:57:03.099Z,96.30
2018-12-20T03:02:07.936Z,96.30
2018-12-20T03:07:13.134Z,96.40
2018-12-20T03:12:18.184Z,95.70
2018-12-20T03:17:23.306Z,96.20
2018-12-20T03:22:28.265Z,96.70
2018-12-20T03:27:33.316Z,97.50
2018-12-20T03:32:38.154Z,97.40
2018-12-20T03:37:43.165Z,97.10
2018-12-20T03:42:48.103Z,96.80
2018-12-20T03:47:53.214Z,96.80
2018-12-20T03:52:58.188Z,97.30
2018-12-20T03:58:04.259Z,97.10
2018-12-20T04:03:09.327Z,95.90
2018-12-20T04:08:14.436Z,96.30
2018-12-20T04:13:19.420Z,97.10
2018-12-20T04:18:26.439Z,96.50
2018-12-20T04:23:31.322Z,96.80
2018-12-20T04:28:36.236Z,96.70
2018-12-20T04:33:41.281Z,96.40
2018-12-20T04:38:46.336Z,97.10
2018-12-20T04:43:51.610Z,97.00
2018-12-20T04:48:56.991Z,96.90
2018-12-20T04:54:01.910Z,96.50
2018-12-20T04:59:07.842Z,96.90
2018-12-20T05:04:12.863Z,96.70
2018-12-20T05:09:17.684Z,97.50
2018-12-20T05:14:22.881Z,97.10
2018-12-20T05:19:28.023Z,97.10
2018-12-20T05:24:32.971Z,97.00
2018-12-20T05:29:38.226Z,96.60
2018-12-20T05:34:46.027Z,96.60
2018-12-20T05:39:51.302Z,96.20
2018-12-20T05:44:56.380Z,96.60
2018-12-20T05:50:01.380Z,97.00
2018-12-20T05:55:06.468Z,96.70
2018-12-20T06:00:11.782Z,96.70
2018-12-20T06:05:16.707Z,97.00
2018-12-20T06:10:21.682Z,96.90
2018-12-20T06:15:26.599Z,97.00
2018-12-20T06:20:32.583Z,97.20
2018-12-20T06:25:37.655Z,96.80
2018-12-20T06:30:42.594Z,97.10
2018-12-20T06:35:47.773Z,96.00
2018-12-20T06:40:52.578Z,96.10
2018-12-20T06:45:57.546Z,96.00
2018-12-20T06:51:02.452Z,95.90
2018-12-20T06:56:07.221Z,96.20
2018-12-20T07:01:12.087Z,96.00
2018-12-20T07:06:16.962Z,96.00
2018-12-20T07:11:22.003Z,96.30
2018-12-20T07:16:29.470Z,96.70
2018-12-20T07:21:33.928Z,95.80
2018-12-20T07:26:38.920Z,95.90
2018-12-20T07:31:43.933Z,95.80
2018-12-20T07:36:48.863Z,95.70
2018-12-20T07:41:53.916Z,95.40
2018-12-20T07:46:58.796Z,95.80
2018-12-20T07:52:03.684Z,96.40
2018-12-20T07:57:08.664Z,95.70
2018-12-20T08:02:13.635Z,95.90
2018-12-20T08:07:18.487Z,95.90
2018-12-20T08:12:23.504Z,95.30
2018-12-20T08:17:28.476Z,95.20
2018-12-20T08:22:33.412Z,95.80
2018-12-20T08:27:38.239Z,96.20
2018-12-20T08:32:43.308Z,96.40
2018-12-20T08:37:48.148Z,96.20
2018-12-20T08:42:53.031Z,95.70
2018-12-20T08:47:57.913Z,95.70
2018-12-20T08:53:03.015Z,95.10
2018-12-20T08:58:07.907Z,95.20
2018-12-20T09:03:12.885Z,95.40
2018-12-20T09:08:17.743Z,95.10
2018-12-20T09:13:22.696Z,95.40
2018-12-20T09:18:27.639Z,95.20
2018-12-20T09:23:33.798Z,95.10
2018-12-20T09:28:38.765Z,95.30
2018-12-20T09:33:43.822Z,94.90
2018-12-20T09:38:48.660Z,94.90
2018-12-20T09:43:53.716Z,95.30
2018-12-20T09:48:58.561Z,94.50
2018-12-20T09:54:03.465Z,94.60
2018-12-20T09:59:08.448Z,94.70
2018-12-20T10:04:13.287Z,94.40
2018-12-20T10:09:18.258Z,94.70
2018-12-20T10:14:23.278Z,94.30
2018-12-20T10:19:28.163Z,94.50
2018-12-20T10:24:33.181Z,93.90
2018-12-20T10:29:38.059Z,93.80
2018-12-20T10:34:42.949Z,94.20
2018-12-20T10:39:47.848Z,94.10
2018-12-20T10:44:52.722Z,94.00
2018-12-20T10:49:57.520Z,94.30
2018-12-20T10:55:02.580Z,93.90
2018-12-20T11:00:08.510Z,93.50
2018-12-20T11:05:18.401Z,93.20
2018-12-20T11:10:28.449Z,92.90
2018-12-20T11:15:33.436Z,92.50
2018-12-20T11:20:38.389Z,92.70
2018-12-20T11:25:43.523Z,92.30
2018-12-20T11:30:48.502Z,92.20
2018-12-20T11:35:53.438Z,92.70
2018-12-20T11:40:58.376Z,93.20
2018-12-20T11:46:03.185Z,93.10
2018-12-20T11:51:08.267Z,92.90
2018-12-20T11:56:13.104Z,92.20
2018-12-20T12:01:18.189Z,91.10
2018-12-20T12:06:23.015Z,89.70
2018-12-20T12:11:27.925Z,87.90
2018-12-20T12:16:32.811Z,86.60
2018-12-20T12:21:37.673Z,89.50
2018-12-20T12:26:42.606Z,87.60
2018-12-20T12:31:47.457Z,89.00
2018-12-20T12:36:52.403Z,88.20
2018-12-20T12:41:57.331Z,89.30
2018-12-20T12:47:04.383Z,90.00
2018-12-20T12:52:09.195Z,90.90
2018-12-20T12:57:14.243Z,91.90
2018-12-20T13:02:19.186Z,92.00
2018-12-20T13:07:24.219Z,92.50
2018-12-20T13:12:29.091Z,92.30
2018-12-20T13:17:34.124Z,91.80
2018-12-20T13:22:39.072Z,92.70
2018-12-20T13:27:44.142Z,92.80
2018-12-20T13:32:48.973Z,91.30
2018-12-20T13:37:54.009Z,92.70
2018-12-20T13:42:58.767Z,92.90
2018-12-20T13:48:03.701Z,93.30
2018-12-20T13:53:08.538Z,93.80
2018-12-20T13:58:13.291Z,94.30
2018-12-20T14:03:18.120Z,94.30
2018-12-20T14:08:22.991Z,94.20
2018-12-20T14:13:27.933Z,94.40
2018-12-20T14:18:32.681Z,94.20
2018-12-20T14:23:38.032Z,94.10
2018-12-20T14:28:42.975Z,94.10
2018-12-20T14:33:48.062Z,94.10
2018-12-20T14:38:53.088Z,94.50
2018-12-20T14:43:58.039Z,94.20
2018-12-20T14:49:02.903Z,94.60
2018-12-20T14:54:07.936Z,94.50
2018-12-20T14:59:12.887Z,94.70
2018-12-20T15:04:17.833Z,94.90
2018-12-20T15:09:22.769Z,94.70
2018-12-20T15:14:27.817Z,94.70
2018-12-20T15:19:32.576Z,94.90
2018-12-20T15:24:37.623Z,95.00
2018-12-20T15:29:42.565Z,95.10
2018-12-20T15:34:47.400Z,95.10
2018-12-20T15:39:52.353Z,95.20
2018-12-20T15:44:57.307Z,95.20
2018-12-20T15:50:02.287Z,95.50
2018-12-20T15:55:09.686Z,95.50
2018-12-20T16:00:14.715Z,95.40
2018-12-20T16:05:20.445Z,95.40
2018-12-20T16:10:25.527Z,95.40
2018-12-20T16:15:30.379Z,95.60
2018-12-20T16:20:35.444Z,95.50
2018-12-20T16:25:40.385Z,95.50
2018-12-20T16:30:45.308Z,95.50
2018-12-20T16:35:50.248Z,95.30
2018-12-20T16:40:55.015Z,95.50
2018-12-20T16:46:00.067Z,95.60
2018-12-20T16:51:05.027Z,95.60
2018-12-20T16:56:10.164Z,95.40
2018-12-20T17:01:15.120Z,95.60
2018-12-20T17:06:20.064Z,95.80
2018-12-20T17:11:24.992Z,95.70
2018-12-20T17:16:30.163Z,95.70
2018-12-20T17:21:34.985Z,95.80
2018-12-20T17:26:39.954Z,95.70
2018-12-20T17:31:44.910Z,95.80
2018-12-20T17:36:49.956Z,95.80
2018-12-20T17:41:54.800Z,95.70
2018-12-20T17:46:59.849Z,95.90
2018-12-20T17:52:04.791Z,96.00
2018-12-20T17:57:09.654Z,96.10
2018-12-20T18:02:14.595Z,95.80
2018-12-20T18:07:19.505Z,95.80
2018-12-20T18:12:24.515Z,95.80
2018-12-20T18:17:29.407Z,95.90
2018-12-20T18:22:34.293Z,95.90
2018-12-20T18:27:39.254Z,95.50
2018-12-20T18:32:44.296Z,95.90
2018-12-20T18:37:49.255Z,95.80
2018-12-20T18:42:54.299Z,95.80
2018-12-20T18:47:59.456Z,96.10
2018-12-20T18:53:05.402Z,96.00
2018-12-20T18:58:10.355Z,95.70
2018-12-20T19:03:15.230Z,96.00
2018-12-20T19:08:20.274Z,96.30
2018-12-20T19:13:25.366Z,96.50
2018-12-20T19:18:30.325Z,96.00
2018-12-20T19:23:35.219Z,96.20
2018-12-20T19:28:40.805Z,96.30
2018-12-20T19:33:45.670Z,96.10
2018-12-20T19:38:50.973Z,96.00
2018-12-20T19:43:56.543Z,96.40
2018-12-20T19:49:02.386Z,96.20
2018-12-20T19:54:07.598Z,96.30
2018-12-20T19:59:12.593Z,96.20
2018-12-20T20:04:18.649Z,96.00
2018-12-20T20:09:24.972Z,95.80
2018-12-20T20:14:29.917Z,95.70
2018-12-20T20:19:36.200Z,95.90
2018-12-20T20:24:41.547Z,96.00
2018-12-20T20:29:46.782Z,96.00
2018-12-20T20:34:51.617Z,95.90
2018-12-20T20:39:56.664Z,96.30
2018-12-20T20:45:01.833Z,96.40
2018-12-20T20:50:08.107Z,96.20
2018-12-20T20:55:13.147Z,96.30
2018-12-20T21:00:17.993Z,96.00
2018-12-20T21:05:22.864Z,96.00
2018-12-20T21:10:27.806Z,96.20
2018-12-20T21:15:32.851Z,96.00
2018-12-20T21:20:37.672Z,96.00
2018-12-20T21:25:42.647Z,96.00
2018-12-20T21:30:47.699Z,96.00
2018-12-20T21:35:52.734Z,95.90
2018-12-20T21:40:57.660Z,95.90
2018-12-20T21:46:02.635Z,96.00
2018-12-20T21:51:07.724Z,96.20
2018-12-20T21:56:13.623Z,96.10
2018-12-20T22:01:18.463Z,95.80
2018-12-20T22:06:23.343Z,95.70
2018-12-20T22:11:28.507Z,95.80
2018-12-20T22:16:33.567Z,95.80
2018-12-20T22:21:38.718Z,95.60
2018-12-20T22:26:43.561Z,95.80
2018-12-20T22:31:48.603Z,95.80
2018-12-20T22:36:53.475Z,96.00
2018-12-20T22:41:58.290Z,95.60
2018-12-20T22:47:03.240Z,95.80
2018-12-20T22:52:08.278Z,96.10
2018-12-20T22:57:13.324Z,96.00
2018-12-20T23:02:18.450Z,96.20
2018-12-20T23:07:23.348Z,95.90
2018-12-20T23:12:28.275Z,96.00
2018-12-20T23:17:33.117Z,96.20
2018-12-20T23:22:38.096Z,95.40
2018-12-20T23:27:43.034Z,95.40
2018-12-20T23:32:48.072Z,95.90
2018-12-20T23:37:52.911Z,95.70
2018-12-20T23:42:57.726Z,95.60
2018-12-20T23:48:02.717Z,96.00
2018-12-20T23:53:07.553Z,96.10
2018-12-20T23:58:12.594Z,96.00
